sensor_id;sensor_type;location;lat;lon;timestamp;temperature;humidity
40828;DHT22;26549;50.918;5.338;2023-04-15T00:01:22;9.80;99.90
40828;DHT22;26549;50.918;5.338;2023-04-15T00:03:50;9.70;99.90
40828;DHT22;26549;50.918;5.338;2023-04-15T00:06:23;9.80;99.90
40828;DHT22;26549;50.918;5.338;2023-04-15T00:08:49;9.70;99.90
40828;DHT22;26549;50.918;5.338;2023-04-15T00:11:18;9.70;99.90
40828;DHT22;26549;50.918;5.338;2023-04-15T00:13:45;9.70;99.90
40828;DHT22;26549;50.918;5.338;2023-04-15T00:16:11;9.60;99.90
40828;DHT22;26549;50.918;5.338;2023-04-15T00:18:37;9.60;99.90
40828;DHT22;26549;50.918;5.338;2023-04-15T00:21:04;9.70;99.90
40828;DHT22;26549;50.918;5.338;2023-04-15T00:23:29;9.70;99.90
40828;DHT22;26549;50.918;5.338;2023-04-15T00:25:56;9.60;99.90
40828;DHT22;26549;50.918;5.338;2023-04-15T00:28:21;9.60;99.90
40828;DHT22;26549;50.918;5.338;2023-04-15T00:30:47;9.70;99.90
40828;DHT22;26549;50.918;5.338;2023-04-15T00:33:13;9.70;99.90
40828;DHT22;26549;50.918;5.338;2023-04-15T00:35:41;9.70;99.90
40828;DHT22;26549;50.918;5.338;2023-04-15T00:38:06;9.60;99.90
40828;DHT22;26549;50.918;5.338;2023-04-15T00:40:35;9.70;99.90
40828;DHT22;26549;50.918;5.338;2023-04-15T00:43:01;9.80;99.90
40828;DHT22;26549;50.918;5.338;2023-04-15T00:45:27;9.90;99.90
40828;DHT22;26549;50.918;5.338;2023-04-15T00:47:53;10.00;99.90
40828;DHT22;26549;50.918;5.338;2023-04-15T00:50:20;10.00;99.90
40828;DHT22;26549;50.918;5.338;2023-04-15T00:52:45;10.10;99.90
40828;DHT22;26549;50.918;5.338;2023-04-15T00:55:11;10.10;99.90
40828;DHT22;26549;50.918;5.338;2023-04-15T00:57:38;10.10;99.90
40828;DHT22;26549;50.918;5.338;2023-04-15T01:00:05;10.10;99.90
40828;DHT22;26549;50.918;5.338;2023-04-15T01:02:33;10.10;99.90
40828;DHT22;26549;50.918;5.338;2023-04-15T01:05:00;10.10;99.90
40828;DHT22;26549;50.918;5.338;2023-04-15T01:07:25;10.10;99.90
40828;DHT22;26549;50.918;5.338;2023-04-15T01:09:51;10.10;99.90
40828;DHT22;26549;50.918;5.338;2023-04-15T01:12:19;10.10;99.90
40828;DHT22;26549;50.918;5.338;2023-04-15T01:14:45;10.10;99.90
40828;DHT22;26549;50.918;5.338;2023-04-15T01:17:11;10.10;99.90
40828;DHT22;26549;50.918;5.338;2023-04-15T01:19:37;10.20;99.90
40828;DHT22;26549;50.918;5.338;2023-04-15T01:22:04;10.10;99.90
40828;DHT22;26549;50.918;5.338;2023-04-15T01:24:31;10.20;99.90
40828;DHT22;26549;50.918;5.338;2023-04-15T01:26:57;10.30;99.90
40828;DHT22;26549;50.918;5.338;2023-04-15T01:29:23;10.30;99.90
40828;DHT22;26549;50.918;5.338;2023-04-15T01:31:54;10.30;99.90
40828;DHT22;26549;50.918;5.338;2023-04-15T01:34:20;10.30;99.90
40828;DHT22;26549;50.918;5.338;2023-04-15T01:36:46;10.30;99.90
40828;DHT22;26549;50.918;5.338;2023-04-15T01:39:12;10.30;99.90
40828;DHT22;26549;50.918;5.338;2023-04-15T01:41:38;10.30;99.90
40828;DHT22;26549;50.918;5.338;2023-04-15T01:44:05;10.30;99.90
40828;DHT22;26549;50.918;5.338;2023-04-15T01:46:31;10.20;99.90
40828;DHT22;26549;50.918;5.338;2023-04-15T01:48:57;10.30;99.90
40828;DHT22;26549;50.918;5.338;2023-04-15T01:51:23;10.30;99.90
40828;DHT22;26549;50.918;5.338;2023-04-15T01:53:48;10.30;99.90
40828;DHT22;26549;50.918;5.338;2023-04-15T01:56:14;10.30;99.90
40828;DHT22;26549;50.918;5.338;2023-04-15T01:58:40;10.30;99.90
40828;DHT22;26549;50.918;5.338;2023-04-15T02:01:06;10.20;99.90
40828;DHT22;26549;50.918;5.338;2023-04-15T02:03:32;10.20;99.90
40828;DHT22;26549;50.918;5.338;2023-04-15T02:05:58;10.20;99.90
40828;DHT22;26549;50.918;5.338;2023-04-15T02:08:23;10.20;99.90
40828;DHT22;26549;50.918;5.338;2023-04-15T02:10:49;10.30;99.90
40828;DHT22;26549;50.918;5.338;2023-04-15T02:13:15;10.30;99.90
40828;DHT22;26549;50.918;5.338;2023-04-15T02:15:48;10.40;99.90
40828;DHT22;26549;50.918;5.338;2023-04-15T02:18:15;10.40;99.90
40828;DHT22;26549;50.918;5.338;2023-04-15T02:20:41;10.50;99.90
40828;DHT22;26549;50.918;5.338;2023-04-15T02:23:11;10.50;99.90
40828;DHT22;26549;50.918;5.338;2023-04-15T02:25:37;10.50;99.90
40828;DHT22;26549;50.918;5.338;2023-04-15T02:28:05;10.50;99.90
40828;DHT22;26549;50.918;5.338;2023-04-15T02:30:32;10.60;99.90
40828;DHT22;26549;50.918;5.338;2023-04-15T02:32:59;10.60;99.90
40828;DHT22;26549;50.918;5.338;2023-04-15T02:35:25;10.60;99.90
40828;DHT22;26549;50.918;5.338;2023-04-15T02:37:51;10.50;99.90
40828;DHT22;26549;50.918;5.338;2023-04-15T02:40:17;10.50;99.90
40828;DHT22;26549;50.918;5.338;2023-04-15T02:42:43;10.50;99.90
40828;DHT22;26549;50.918;5.338;2023-04-15T02:45:09;10.60;99.90
40828;DHT22;26549;50.918;5.338;2023-04-15T02:47:36;10.60;99.90
40828;DHT22;26549;50.918;5.338;2023-04-15T02:50:10;10.50;99.90
40828;DHT22;26549;50.918;5.338;2023-04-15T02:52:39;10.40;99.90
40828;DHT22;26549;50.918;5.338;2023-04-15T02:55:06;10.50;99.90
40828;DHT22;26549;50.918;5.338;2023-04-15T02:57:32;10.50;99.90
40828;DHT22;26549;50.918;5.338;2023-04-15T02:59:59;10.40;99.90
40828;DHT22;26549;50.918;5.338;2023-04-15T03:02:25;10.30;99.90
40828;DHT22;26549;50.918;5.338;2023-04-15T03:04:50;10.40;99.90
40828;DHT22;26549;50.918;5.338;2023-04-15T03:07:17;10.50;99.90
40828;DHT22;26549;50.918;5.338;2023-04-15T03:09:43;10.40;99.90
40828;DHT22;26549;50.918;5.338;2023-04-15T03:12:09;10.40;99.90
40828;DHT22;26549;50.918;5.338;2023-04-15T03:14:35;10.50;99.90
40828;DHT22;26549;50.918;5.338;2023-04-15T03:17:01;10.50;99.90
40828;DHT22;26549;50.918;5.338;2023-04-15T03:19:26;10.70;99.90
40828;DHT22;26549;50.918;5.338;2023-04-15T03:21:53;10.60;99.90
40828;DHT22;26549;50.918;5.338;2023-04-15T03:24:19;10.60;99.90
40828;DHT22;26549;50.918;5.338;2023-04-15T03:26:45;10.60;99.90
40828;DHT22;26549;50.918;5.338;2023-04-15T03:29:11;10.60;99.90
40828;DHT22;26549;50.918;5.338;2023-04-15T03:31:36;10.70;99.90
40828;DHT22;26549;50.918;5.338;2023-04-15T03:34:02;10.60;99.90
40828;DHT22;26549;50.918;5.338;2023-04-15T03:36:28;10.60;99.90
40828;DHT22;26549;50.918;5.338;2023-04-15T03:38:57;10.70;99.90
40828;DHT22;26549;50.918;5.338;2023-04-15T03:41:23;10.60;99.90
40828;DHT22;26549;50.918;5.338;2023-04-15T03:43:49;10.60;99.90
40828;DHT22;26549;50.918;5.338;2023-04-15T03:46:17;10.60;99.90
40828;DHT22;26549;50.918;5.338;2023-04-15T03:48:43;10.60;99.90
40828;DHT22;26549;50.918;5.338;2023-04-15T03:51:09;10.50;99.90
40828;DHT22;26549;50.918;5.338;2023-04-15T03:53:34;10.50;99.90
40828;DHT22;26549;50.918;5.338;2023-04-15T03:56:00;10.50;99.90
40828;DHT22;26549;50.918;5.338;2023-04-15T03:58:26;10.50;99.90
40828;DHT22;26549;50.918;5.338;2023-04-15T04:00:52;10.60;99.90
40828;DHT22;26549;50.918;5.338;2023-04-15T04:03:19;10.60;99.90
40828;DHT22;26549;50.918;5.338;2023-04-15T04:05:45;10.40;99.90
40828;DHT22;26549;50.918;5.338;2023-04-15T04:08:11;10.40;99.90
40828;DHT22;26549;50.918;5.338;2023-04-15T04:10:38;10.30;99.90
40828;DHT22;26549;50.918;5.338;2023-04-15T04:13:04;10.20;99.90
40828;DHT22;26549;50.918;5.338;2023-04-15T04:15:30;10.30;99.90
40828;DHT22;26549;50.918;5.338;2023-04-15T04:17:56;10.40;99.90
40828;DHT22;26549;50.918;5.338;2023-04-15T04:20:22;10.50;99.90
40828;DHT22;26549;50.918;5.338;2023-04-15T04:22:48;10.40;99.90
40828;DHT22;26549;50.918;5.338;2023-04-15T04:25:13;10.50;99.90
40828;DHT22;26549;50.918;5.338;2023-04-15T04:27:39;10.50;99.90
40828;DHT22;26549;50.918;5.338;2023-04-15T04:30:05;10.50;99.90
40828;DHT22;26549;50.918;5.338;2023-04-15T04:32:31;10.50;99.90
40828;DHT22;26549;50.918;5.338;2023-04-15T04:34:57;10.60;99.90
40828;DHT22;26549;50.918;5.338;2023-04-15T04:37:23;10.70;99.90
40828;DHT22;26549;50.918;5.338;2023-04-15T04:39:49;10.60;99.90
40828;DHT22;26549;50.918;5.338;2023-04-15T04:42:15;10.60;99.90
40828;DHT22;26549;50.918;5.338;2023-04-15T04:44:41;10.70;99.90
40828;DHT22;26549;50.918;5.338;2023-04-15T04:47:07;10.60;99.90
40828;DHT22;26549;50.918;5.338;2023-04-15T04:49:32;10.60;99.90
40828;DHT22;26549;50.918;5.338;2023-04-15T04:51:58;10.60;99.90
40828;DHT22;26549;50.918;5.338;2023-04-15T04:54:24;10.40;99.90
40828;DHT22;26549;50.918;5.338;2023-04-15T04:56:52;10.50;99.90
40828;DHT22;26549;50.918;5.338;2023-04-15T04:59:17;10.60;99.90
40828;DHT22;26549;50.918;5.338;2023-04-15T05:01:43;10.50;99.90
40828;DHT22;26549;50.918;5.338;2023-04-15T05:04:10;10.50;99.90
40828;DHT22;26549;50.918;5.338;2023-04-15T05:06:36;10.60;99.90
40828;DHT22;26549;50.918;5.338;2023-04-15T05:09:02;10.60;99.90
40828;DHT22;26549;50.918;5.338;2023-04-15T05:11:28;10.60;99.90
40828;DHT22;26549;50.918;5.338;2023-04-15T05:13:54;10.50;99.90
40828;DHT22;26549;50.918;5.338;2023-04-15T05:16:20;10.20;99.90
40828;DHT22;26549;50.918;5.338;2023-04-15T05:18:46;10.40;99.90
40828;DHT22;26549;50.918;5.338;2023-04-15T05:21:11;10.40;99.90
40828;DHT22;26549;50.918;5.338;2023-04-15T05:23:37;10.60;99.90
40828;DHT22;26549;50.918;5.338;2023-04-15T05:26:03;10.60;99.90
40828;DHT22;26549;50.918;5.338;2023-04-15T05:28:28;10.70;99.90
40828;DHT22;26549;50.918;5.338;2023-04-15T05:30:54;10.70;99.90
40828;DHT22;26549;50.918;5.338;2023-04-15T05:33:20;10.50;99.90
40828;DHT22;26549;50.918;5.338;2023-04-15T05:35:46;10.50;99.90
40828;DHT22;26549;50.918;5.338;2023-04-15T05:38:12;10.60;99.90
40828;DHT22;26549;50.918;5.338;2023-04-15T05:40:37;10.60;99.90
40828;DHT22;26549;50.918;5.338;2023-04-15T05:43:03;10.60;99.90
40828;DHT22;26549;50.918;5.338;2023-04-15T05:45:29;10.60;99.90
40828;DHT22;26549;50.918;5.338;2023-04-15T05:47:54;10.50;99.90
40828;DHT22;26549;50.918;5.338;2023-04-15T05:50:20;10.50;99.90
40828;DHT22;26549;50.918;5.338;2023-04-15T05:52:47;10.50;99.90
40828;DHT22;26549;50.918;5.338;2023-04-15T05:55:13;10.40;99.90
40828;DHT22;26549;50.918;5.338;2023-04-15T05:57:39;10.40;99.90
40828;DHT22;26549;50.918;5.338;2023-04-15T06:00:05;10.50;99.90
40828;DHT22;26549;50.918;5.338;2023-04-15T06:02:31;10.70;99.90
40828;DHT22;26549;50.918;5.338;2023-04-15T06:04:57;10.50;99.90
40828;DHT22;26549;50.918;5.338;2023-04-15T06:07:23;10.40;99.90
40828;DHT22;26549;50.918;5.338;2023-04-15T06:09:49;10.40;99.90
40828;DHT22;26549;50.918;5.338;2023-04-15T06:12:15;10.30;99.90
40828;DHT22;26549;50.918;5.338;2023-04-15T06:14:41;10.40;99.90
40828;DHT22;26549;50.918;5.338;2023-04-15T06:17:07;10.50;99.90
40828;DHT22;26549;50.918;5.338;2023-04-15T06:19:34;10.20;99.90
40828;DHT22;26549;50.918;5.338;2023-04-15T06:22:00;10.40;99.90
40828;DHT22;26549;50.918;5.338;2023-04-15T06:24:26;10.30;99.90
40828;DHT22;26549;50.918;5.338;2023-04-15T06:26:52;10.20;99.90
40828;DHT22;26549;50.918;5.338;2023-04-15T06:29:18;10.40;99.90
40828;DHT22;26549;50.918;5.338;2023-04-15T06:31:47;10.20;99.90
40828;DHT22;26549;50.918;5.338;2023-04-15T06:34:12;10.30;99.90
40828;DHT22;26549;50.918;5.338;2023-04-15T06:36:38;10.20;99.90
40828;DHT22;26549;50.918;5.338;2023-04-15T06:39:04;10.40;99.90
40828;DHT22;26549;50.918;5.338;2023-04-15T06:41:29;10.30;99.90
40828;DHT22;26549;50.918;5.338;2023-04-15T06:43:55;10.60;99.90
40828;DHT22;26549;50.918;5.338;2023-04-15T06:46:21;10.60;99.90
40828;DHT22;26549;50.918;5.338;2023-04-15T06:49:05;10.90;99.90
40828;DHT22;26549;50.918;5.338;2023-04-15T06:51:31;11.30;99.90
40828;DHT22;26549;50.918;5.338;2023-04-15T06:53:59;11.30;99.90
40828;DHT22;26549;50.918;5.338;2023-04-15T06:56:33;11.30;99.90
40828;DHT22;26549;50.918;5.338;2023-04-15T06:58:59;11.60;99.90
40828;DHT22;26549;50.918;5.338;2023-04-15T07:01:27;11.50;99.90
40828;DHT22;26549;50.918;5.338;2023-04-15T07:03:54;11.60;99.90
40828;DHT22;26549;50.918;5.338;2023-04-15T07:06:19;11.90;99.90
40828;DHT22;26549;50.918;5.338;2023-04-15T07:08:46;12.00;99.90
40828;DHT22;26549;50.918;5.338;2023-04-15T07:11:12;12.10;99.90
40828;DHT22;26549;50.918;5.338;2023-04-15T07:13:38;12.40;99.90
40828;DHT22;26549;50.918;5.338;2023-04-15T07:16:15;12.40;99.90
40828;DHT22;26549;50.918;5.338;2023-04-15T07:18:44;12.50;99.10
40828;DHT22;26549;50.918;5.338;2023-04-15T07:21:10;12.50;99.90
40828;DHT22;26549;50.918;5.338;2023-04-15T07:23:36;12.80;99.70
40828;DHT22;26549;50.918;5.338;2023-04-15T07:26:02;12.80;99.30
40828;DHT22;26549;50.918;5.338;2023-04-15T07:28:28;12.90;99.00
40828;DHT22;26549;50.918;5.338;2023-04-15T07:30:55;13.00;98.50
40828;DHT22;26549;50.918;5.338;2023-04-15T07:33:23;13.10;97.90
40828;DHT22;26549;50.918;5.338;2023-04-15T07:35:49;13.10;98.70
40828;DHT22;26549;50.918;5.338;2023-04-15T07:38:16;13.20;98.50
40828;DHT22;26549;50.918;5.338;2023-04-15T07:40:42;13.20;98.70
40828;DHT22;26549;50.918;5.338;2023-04-15T07:43:08;13.40;97.60
40828;DHT22;26549;50.918;5.338;2023-04-15T07:45:34;13.50;97.50
40828;DHT22;26549;50.918;5.338;2023-04-15T07:48:01;13.50;97.80
40828;DHT22;26549;50.918;5.338;2023-04-15T07:50:27;13.50;97.90
40828;DHT22;26549;50.918;5.338;2023-04-15T07:52:54;13.60;97.80
40828;DHT22;26549;50.918;5.338;2023-04-15T07:55:20;13.70;97.80
40828;DHT22;26549;50.918;5.338;2023-04-15T07:57:48;13.60;97.40
40828;DHT22;26549;50.918;5.338;2023-04-15T08:00:15;13.80;97.50
40828;DHT22;26549;50.918;5.338;2023-04-15T08:02:41;13.90;97.10
40828;DHT22;26549;50.918;5.338;2023-04-15T08:05:09;13.80;97.40
40828;DHT22;26549;50.918;5.338;2023-04-15T08:07:36;13.90;97.30
40828;DHT22;26549;50.918;5.338;2023-04-15T08:10:02;13.90;97.40
40828;DHT22;26549;50.918;5.338;2023-04-15T08:12:28;14.00;96.80
40828;DHT22;26549;50.918;5.338;2023-04-15T08:14:54;13.90;97.10
40828;DHT22;26549;50.918;5.338;2023-04-15T08:17:21;13.90;97.10
40828;DHT22;26549;50.918;5.338;2023-04-15T08:19:47;13.90;97.50
40828;DHT22;26549;50.918;5.338;2023-04-15T08:22:13;14.10;97.60
40828;DHT22;26549;50.918;5.338;2023-04-15T08:24:39;14.10;98.10
40828;DHT22;26549;50.918;5.338;2023-04-15T08:27:04;14.30;98.20
40828;DHT22;26549;50.918;5.338;2023-04-15T08:29:31;14.20;98.00
40828;DHT22;26549;50.918;5.338;2023-04-15T08:31:59;14.10;98.20
40828;DHT22;26549;50.918;5.338;2023-04-15T08:34:26;14.20;98.60
40828;DHT22;26549;50.918;5.338;2023-04-15T08:36:52;14.20;97.70
40828;DHT22;26549;50.918;5.338;2023-04-15T08:39:18;14.30;99.00
40828;DHT22;26549;50.918;5.338;2023-04-15T08:41:46;14.30;98.60
40828;DHT22;26549;50.918;5.338;2023-04-15T08:44:13;14.40;98.20
40828;DHT22;26549;50.918;5.338;2023-04-15T08:46:40;14.30;97.90
40828;DHT22;26549;50.918;5.338;2023-04-15T08:49:10;14.20;98.10
40828;DHT22;26549;50.918;5.338;2023-04-15T08:51:38;14.20;98.20
40828;DHT22;26549;50.918;5.338;2023-04-15T08:54:05;14.30;98.20
40828;DHT22;26549;50.918;5.338;2023-04-15T08:56:31;14.40;98.00
40828;DHT22;26549;50.918;5.338;2023-04-15T08:58:58;14.40;98.10
40828;DHT22;26549;50.918;5.338;2023-04-15T09:01:25;14.30;98.70
40828;DHT22;26549;50.918;5.338;2023-04-15T09:03:51;14.30;98.20
40828;DHT22;26549;50.918;5.338;2023-04-15T09:06:19;14.40;98.30
40828;DHT22;26549;50.918;5.338;2023-04-15T09:08:46;14.50;98.10
40828;DHT22;26549;50.918;5.338;2023-04-15T09:11:12;14.50;97.70
40828;DHT22;26549;50.918;5.338;2023-04-15T09:13:38;14.60;98.60
40828;DHT22;26549;50.918;5.338;2023-04-15T09:16:05;14.70;97.30
40828;DHT22;26549;50.918;5.338;2023-04-15T09:18:34;14.80;97.30
40828;DHT22;26549;50.918;5.338;2023-04-15T09:21:06;14.70;96.30
40828;DHT22;26549;50.918;5.338;2023-04-15T09:23:34;14.70;97.50
40828;DHT22;26549;50.918;5.338;2023-04-15T09:26:01;14.80;96.10
40828;DHT22;26549;50.918;5.338;2023-04-15T09:28:28;14.80;95.90
40828;DHT22;26549;50.918;5.338;2023-04-15T09:30:58;14.80;95.90
40828;DHT22;26549;50.918;5.338;2023-04-15T09:33:24;14.90;97.70
40828;DHT22;26549;50.918;5.338;2023-04-15T09:35:58;14.90;96.90
40828;DHT22;26549;50.918;5.338;2023-04-15T09:38:24;14.90;96.70
40828;DHT22;26549;50.918;5.338;2023-04-15T09:40:50;14.70;98.10
40828;DHT22;26549;50.918;5.338;2023-04-15T09:43:16;14.80;96.20
40828;DHT22;26549;50.918;5.338;2023-04-15T09:45:52;14.70;95.40
40828;DHT22;26549;50.918;5.338;2023-04-15T09:48:20;14.40;96.40
40828;DHT22;26549;50.918;5.338;2023-04-15T09:50:48;14.50;97.00
40828;DHT22;26549;50.918;5.338;2023-04-15T09:53:22;14.40;96.00
40828;DHT22;26549;50.918;5.338;2023-04-15T09:55:52;14.40;97.10
40828;DHT22;26549;50.918;5.338;2023-04-15T09:58:25;14.60;95.70
40828;DHT22;26549;50.918;5.338;2023-04-15T10:00:53;14.40;95.60
40828;DHT22;26549;50.918;5.338;2023-04-15T10:03:37;14.70;96.10
40828;DHT22;26549;50.918;5.338;2023-04-15T10:06:07;15.00;95.70
40828;DHT22;26549;50.918;5.338;2023-04-15T10:08:34;15.30;95.20
40828;DHT22;26549;50.918;5.338;2023-04-15T10:11:01;15.10;95.00
40828;DHT22;26549;50.918;5.338;2023-04-15T10:13:30;14.90;95.00
40828;DHT22;26549;50.918;5.338;2023-04-15T10:16:07;14.60;93.60
40828;DHT22;26549;50.918;5.338;2023-04-15T10:18:37;14.70;93.40
40828;DHT22;26549;50.918;5.338;2023-04-15T10:21:05;14.60;91.90
40828;DHT22;26549;50.918;5.338;2023-04-15T10:23:33;14.50;90.70
40828;DHT22;26549;50.918;5.338;2023-04-15T10:26:00;14.40;93.20
40828;DHT22;26549;50.918;5.338;2023-04-15T10:28:27;14.50;93.10
40828;DHT22;26549;50.918;5.338;2023-04-15T10:30:53;14.80;93.40
40828;DHT22;26549;50.918;5.338;2023-04-15T10:33:21;14.80;89.90
40828;DHT22;26549;50.918;5.338;2023-04-15T10:35:51;14.80;87.70
40828;DHT22;26549;50.918;5.338;2023-04-15T10:38:38;14.70;89.70
40828;DHT22;26549;50.918;5.338;2023-04-15T10:43:52;14.50;90.30
40828;DHT22;26549;50.918;5.338;2023-04-15T10:48:52;14.80;92.30
40828;DHT22;26549;50.918;5.338;2023-04-15T10:51:29;14.60;92.00
40828;DHT22;26549;50.918;5.338;2023-04-15T10:53:56;14.60;91.50
40828;DHT22;26549;50.918;5.338;2023-04-15T10:56:23;14.90;91.80
40828;DHT22;26549;50.918;5.338;2023-04-15T10:58:48;15.20;92.00
40828;DHT22;26549;50.918;5.338;2023-04-15T11:01:14;15.10;92.40
40828;DHT22;26549;50.918;5.338;2023-04-15T11:03:42;15.00;92.00
40828;DHT22;26549;50.918;5.338;2023-04-15T11:06:10;14.80;93.00
40828;DHT22;26549;50.918;5.338;2023-04-15T11:09:10;14.50;93.80
40828;DHT22;26549;50.918;5.338;2023-04-15T11:12:07;14.80;93.90
40828;DHT22;26549;50.918;5.338;2023-04-15T11:14:39;15.10;94.80
40828;DHT22;26549;50.918;5.338;2023-04-15T11:17:06;15.00;94.00
40828;DHT22;26549;50.918;5.338;2023-04-15T11:19:38;15.00;93.40
40828;DHT22;26549;50.918;5.338;2023-04-15T11:22:10;14.80;92.90
40828;DHT22;26549;50.918;5.338;2023-04-15T11:24:46;14.80;92.90
40828;DHT22;26549;50.918;5.338;2023-04-15T11:27:24;14.80;92.80
40828;DHT22;26549;50.918;5.338;2023-04-15T11:29:49;14.60;92.20
40828;DHT22;26549;50.918;5.338;2023-04-15T11:32:16;14.60;93.30
40828;DHT22;26549;50.918;5.338;2023-04-15T11:34:45;14.60;92.70
40828;DHT22;26549;50.918;5.338;2023-04-15T11:37:13;14.50;93.50
40828;DHT22;26549;50.918;5.338;2023-04-15T11:39:40;14.50;94.90
40828;DHT22;26549;50.918;5.338;2023-04-15T11:42:16;14.80;92.30
40828;DHT22;26549;50.918;5.338;2023-04-15T11:44:42;14.90;91.40
40828;DHT22;26549;50.918;5.338;2023-04-15T11:47:37;14.80;92.80
40828;DHT22;26549;50.918;5.338;2023-04-15T11:50:17;14.90;92.90
40828;DHT22;26549;50.918;5.338;2023-04-15T11:53:00;14.80;93.20
40828;DHT22;26549;50.918;5.338;2023-04-15T11:55:27;15.00;93.40
40828;DHT22;26549;50.918;5.338;2023-04-15T11:58:26;15.00;92.90
40828;DHT22;26549;50.918;5.338;2023-04-15T12:00:57;15.00;93.00
40828;DHT22;26549;50.918;5.338;2023-04-15T12:06:19;15.00;91.00
40828;DHT22;26549;50.918;5.338;2023-04-15T12:09:03;15.20;91.20
40828;DHT22;26549;50.918;5.338;2023-04-15T12:14:24;15.40;91.50
40828;DHT22;26549;50.918;5.338;2023-04-15T12:17:01;15.30;92.30
40828;DHT22;26549;50.918;5.338;2023-04-15T12:19:29;15.50;92.80
40828;DHT22;26549;50.918;5.338;2023-04-15T12:21:59;15.60;91.20
40828;DHT22;26549;50.918;5.338;2023-04-15T12:24:25;15.40;88.10
40828;DHT22;26549;50.918;5.338;2023-04-15T12:26:53;15.50;89.70
40828;DHT22;26549;50.918;5.338;2023-04-15T12:29:23;15.50;88.30
40828;DHT22;26549;50.918;5.338;2023-04-15T12:31:56;15.30;89.20
40828;DHT22;26549;50.918;5.338;2023-04-15T12:34:33;15.30;90.40
40828;DHT22;26549;50.918;5.338;2023-04-15T12:37:03;15.30;90.10
40828;DHT22;26549;50.918;5.338;2023-04-15T12:39:33;15.30;90.00
40828;DHT22;26549;50.918;5.338;2023-04-15T12:42:01;15.50;90.40
40828;DHT22;26549;50.918;5.338;2023-04-15T12:44:28;15.60;86.50
40828;DHT22;26549;50.918;5.338;2023-04-15T12:46:54;15.60;82.80
40828;DHT22;26549;50.918;5.338;2023-04-15T12:49:21;15.60;81.20
40828;DHT22;26549;50.918;5.338;2023-04-15T12:51:52;15.70;81.50
40828;DHT22;26549;50.918;5.338;2023-04-15T12:54:18;15.80;82.80
40828;DHT22;26549;50.918;5.338;2023-04-15T12:56:46;15.90;82.20
40828;DHT22;26549;50.918;5.338;2023-04-15T12:59:13;15.90;83.10
40828;DHT22;26549;50.918;5.338;2023-04-15T13:01:39;15.90;82.30
40828;DHT22;26549;50.918;5.338;2023-04-15T13:04:05;16.00;84.90
40828;DHT22;26549;50.918;5.338;2023-04-15T13:06:32;15.90;85.90
40828;DHT22;26549;50.918;5.338;2023-04-15T13:08:59;15.90;87.20
40828;DHT22;26549;50.918;5.338;2023-04-15T13:11:26;15.90;86.50
40828;DHT22;26549;50.918;5.338;2023-04-15T13:13:54;15.90;86.00
40828;DHT22;26549;50.918;5.338;2023-04-15T13:16:21;16.00;84.50
40828;DHT22;26549;50.918;5.338;2023-04-15T13:18:48;15.90;86.90
40828;DHT22;26549;50.918;5.338;2023-04-15T13:21:13;16.00;86.80
40828;DHT22;26549;50.918;5.338;2023-04-15T13:23:43;15.90;87.20
40828;DHT22;26549;50.918;5.338;2023-04-15T13:26:09;16.10;85.90
40828;DHT22;26549;50.918;5.338;2023-04-15T13:28:35;16.30;86.30
40828;DHT22;26549;50.918;5.338;2023-04-15T13:31:01;16.30;85.20
40828;DHT22;26549;50.918;5.338;2023-04-15T13:33:28;16.30;84.50
40828;DHT22;26549;50.918;5.338;2023-04-15T13:35:54;16.30;85.40
40828;DHT22;26549;50.918;5.338;2023-04-15T13:38:20;16.10;86.70
40828;DHT22;26549;50.918;5.338;2023-04-15T13:40:46;16.30;85.60
40828;DHT22;26549;50.918;5.338;2023-04-15T13:43:13;16.40;86.30
40828;DHT22;26549;50.918;5.338;2023-04-15T13:45:38;16.30;86.40
40828;DHT22;26549;50.918;5.338;2023-04-15T13:48:05;16.20;86.00
40828;DHT22;26549;50.918;5.338;2023-04-15T13:50:31;16.10;88.60
40828;DHT22;26549;50.918;5.338;2023-04-15T13:52:57;16.10;88.70
40828;DHT22;26549;50.918;5.338;2023-04-15T13:55:22;16.30;89.50
40828;DHT22;26549;50.918;5.338;2023-04-15T13:57:48;16.10;88.80
40828;DHT22;26549;50.918;5.338;2023-04-15T14:00:15;16.00;88.30
40828;DHT22;26549;50.918;5.338;2023-04-15T14:02:41;15.90;88.90
40828;DHT22;26549;50.918;5.338;2023-04-15T14:05:07;16.00;85.90
40828;DHT22;26549;50.918;5.338;2023-04-15T14:07:37;16.10;88.40
40828;DHT22;26549;50.918;5.338;2023-04-15T14:10:03;16.20;87.20
40828;DHT22;26549;50.918;5.338;2023-04-15T14:12:29;16.00;87.50
40828;DHT22;26549;50.918;5.338;2023-04-15T14:14:55;16.20;88.00
40828;DHT22;26549;50.918;5.338;2023-04-15T14:17:22;16.40;89.00
40828;DHT22;26549;50.918;5.338;2023-04-15T14:19:49;16.40;89.60
40828;DHT22;26549;50.918;5.338;2023-04-15T14:22:14;15.90;89.90
40828;DHT22;26549;50.918;5.338;2023-04-15T14:24:40;15.80;89.10
40828;DHT22;26549;50.918;5.338;2023-04-15T14:27:06;15.80;88.00
40828;DHT22;26549;50.918;5.338;2023-04-15T14:29:34;15.80;89.70
40828;DHT22;26549;50.918;5.338;2023-04-15T14:32:00;15.70;89.50
40828;DHT22;26549;50.918;5.338;2023-04-15T14:34:26;15.60;90.10
40828;DHT22;26549;50.918;5.338;2023-04-15T14:36:52;15.60;90.20
40828;DHT22;26549;50.918;5.338;2023-04-15T14:39:19;15.60;90.70
40828;DHT22;26549;50.918;5.338;2023-04-15T14:41:46;15.70;90.70
40828;DHT22;26549;50.918;5.338;2023-04-15T14:44:13;15.70;91.10
40828;DHT22;26549;50.918;5.338;2023-04-15T14:46:38;15.70;91.00
40828;DHT22;26549;50.918;5.338;2023-04-15T14:49:07;15.60;91.00
40828;DHT22;26549;50.918;5.338;2023-04-15T14:51:33;15.60;91.00
40828;DHT22;26549;50.918;5.338;2023-04-15T14:53:59;15.50;91.20
40828;DHT22;26549;50.918;5.338;2023-04-15T14:56:25;15.50;91.80
40828;DHT22;26549;50.918;5.338;2023-04-15T14:58:51;15.30;92.20
40828;DHT22;26549;50.918;5.338;2023-04-15T15:01:19;15.30;92.30
40828;DHT22;26549;50.918;5.338;2023-04-15T15:03:45;15.40;92.10
40828;DHT22;26549;50.918;5.338;2023-04-15T15:06:10;15.50;92.10
40828;DHT22;26549;50.918;5.338;2023-04-15T15:08:36;15.60;92.40
40828;DHT22;26549;50.918;5.338;2023-04-15T15:11:02;15.60;91.90
40828;DHT22;26549;50.918;5.338;2023-04-15T15:13:28;15.60;91.80
40828;DHT22;26549;50.918;5.338;2023-04-15T15:15:53;15.60;92.40
40828;DHT22;26549;50.918;5.338;2023-04-15T15:18:19;15.70;92.30
40828;DHT22;26549;50.918;5.338;2023-04-15T15:20:46;15.70;91.70
40828;DHT22;26549;50.918;5.338;2023-04-15T15:23:13;15.60;91.90
40828;DHT22;26549;50.918;5.338;2023-04-15T15:25:39;15.70;92.30
40828;DHT22;26549;50.918;5.338;2023-04-15T15:28:06;15.80;92.00
40828;DHT22;26549;50.918;5.338;2023-04-15T15:30:32;16.10;91.50
40828;DHT22;26549;50.918;5.338;2023-04-15T15:32:57;16.10;89.30
40828;DHT22;26549;50.918;5.338;2023-04-15T15:35:24;15.90;90.40
40828;DHT22;26549;50.918;5.338;2023-04-15T15:37:51;15.70;89.80
40828;DHT22;26549;50.918;5.338;2023-04-15T15:40:17;15.60;90.80
40828;DHT22;26549;50.918;5.338;2023-04-15T15:42:42;15.60;91.00
40828;DHT22;26549;50.918;5.338;2023-04-15T15:45:08;15.50;91.70